DRK401 VNKT-VQPR
Flight info
| Callsign | DRK401 |
|---|---|
| Flight time | N/A |
| Altitude | 35000 |
| Route | IGRIS1E KIMTI DCT YUMLI DCT SUBSU DCT TAKTI DCT PRO DCT |
| Aircraft | A20N/M-SDE2E3FGHIRWXY/LB1 |
Departure
| Time | 2026-05-08 08:33 |
|---|---|
| Airport | Tribhuvan International Airport (VNKT) |
Arrival
| Time | N/A |
|---|---|
| Airport | Paro International Airport (VQPR) |
| Time | Latitude | Longitude | Altitude | Speed | Heading |
|---|---|---|---|---|---|
| 2026-05-08 07:54 | 27.70067 | 85.35879 | 4382 ft | 0 kts | 292° |
| 2026-05-08 08:23 | 27.70066 | 85.35882 | 4382 ft | 3 kts | 292° |
| 2026-05-08 08:23 | 27.70056 | 85.35910 | 4381 ft | 4 kts | 288° |
| 2026-05-08 08:24 | 27.70049 | 85.35939 | 4372 ft | 4 kts | 278° |
| 2026-05-08 08:24 | 27.70049 | 85.35968 | 4368 ft | 4 kts | 243° |
| 2026-05-08 08:24 | 27.70056 | 85.35980 | 4362 ft | 1 kts | 201° |
| 2026-05-08 08:27 | 27.70036 | 85.35971 | 4366 ft | 8 kts | 201° |
| 2026-05-08 08:27 | 27.69981 | 85.35946 | 4376 ft | 9 kts | 202° |
| 2026-05-08 08:27 | 27.69924 | 85.35920 | 4379 ft | 9 kts | 202° |
| 2026-05-08 08:28 | 27.69870 | 85.35895 | 4359 ft | 8 kts | 201° |
| 2026-05-08 08:28 | 27.69800 | 85.35864 | 4368 ft | 13 kts | 202° |
| 2026-05-08 08:28 | 27.69712 | 85.35822 | 4370 ft | 14 kts | 202° |
| 2026-05-08 08:28 | 27.69628 | 85.35783 | 4379 ft | 12 kts | 202° |
| 2026-05-08 08:29 | 27.69550 | 85.35747 | 4372 ft | 13 kts | 202° |
| 2026-05-08 08:29 | 27.69462 | 85.35708 | 4355 ft | 15 kts | 202° |
| 2026-05-08 08:29 | 27.69362 | 85.35662 | 4355 ft | 16 kts | 202° |
| 2026-05-08 08:29 | 27.69257 | 85.35614 | 4353 ft | 17 kts | 198° |
| 2026-05-08 08:30 | 27.69142 | 85.35564 | 4351 ft | 18 kts | 202° |
| 2026-05-08 08:30 | 27.69125 | 85.35556 | 4341 ft | 3 kts | 201° |
| 2026-05-08 08:30 | 27.69028 | 85.35622 | 4390 ft | 9 kts | 165° |
| 2026-05-08 08:31 | 27.68945 | 85.35594 | 4379 ft | 15 kts | 201° |
| 2026-05-08 08:31 | 27.68843 | 85.35548 | 4379 ft | 17 kts | 202° |
| 2026-05-08 08:31 | 27.68723 | 85.35493 | 4377 ft | 20 kts | 202° |
| 2026-05-08 08:31 | 27.68592 | 85.35433 | 4371 ft | 21 kts | 202° |
| 2026-05-08 08:32 | 27.68467 | 85.35357 | 4365 ft | 20 kts | 243° |
| 2026-05-08 08:32 | 27.68402 | 85.35334 | 4364 ft | 6 kts | 117° |
| 2026-05-08 08:32 | 27.68464 | 85.35375 | 4366 ft | 33 kts | 13° |
| 2026-05-08 08:32 | 27.68903 | 85.35571 | 4383 ft | 100 kts | 24° |
| 2026-05-08 08:33 | 27.69715 | 85.35948 | 4404 ft | 150 kts | 22° |
| 2026-05-08 08:33 | 27.70811 | 85.36449 | 4561 ft | 178 kts | 22° |
| 2026-05-08 08:33 | 27.71954 | 85.36944 | 5261 ft | 179 kts | 17° |
| 2026-05-08 08:33 | 27.73140 | 85.36746 | 5932 ft | 177 kts | 319° |
| 2026-05-08 08:34 | 27.73804 | 85.35581 | 6381 ft | 188 kts | 289° |
| 2026-05-08 08:34 | 27.74099 | 85.34023 | 6623 ft | 208 kts | 269° |
| 2026-05-08 08:34 | 27.73791 | 85.32449 | 7264 ft | 208 kts | 241° |
| 2026-05-08 08:34 | 27.72883 | 85.31119 | 7707 ft | 222 kts | 221° |
| 2026-05-08 08:35 | 27.71547 | 85.30264 | 8305 ft | 226 kts | 189° |
| 2026-05-08 08:35 | 27.70002 | 85.30363 | 9202 ft | 223 kts | 159° |
| 2026-05-08 08:35 | 27.68694 | 85.31295 | 9973 ft | 230 kts | 136° |
| 2026-05-08 08:35 | 27.67618 | 85.32726 | 10380 ft | 251 kts | 122° |
| 2026-05-08 08:36 | 27.66838 | 85.34608 | 10595 ft | 282 kts | 109° |
| 2026-05-08 08:36 | 27.66259 | 85.36874 | 10749 ft | 310 kts | 102° |
| 2026-05-08 08:36 | 27.65915 | 85.39278 | 11679 ft | 308 kts | 97° |
| 2026-05-08 08:36 | 27.65645 | 85.41633 | 12905 ft | 297 kts | 98° |
| 2026-05-08 08:37 | 27.65332 | 85.43907 | 14096 ft | 290 kts | 101° |
| 2026-05-08 08:37 | 27.64944 | 85.46185 | 14655 ft | 305 kts | 104° |
| 2026-05-08 08:37 | 27.64348 | 85.48579 | 14857 ft | 329 kts | 108° |
| 2026-05-08 08:37 | 27.63654 | 85.51096 | 15050 ft | 351 kts | 108° |
| 2026-05-08 08:38 | 27.62935 | 85.53799 | 15411 ft | 365 kts | 107° |
| 2026-05-08 08:38 | 27.62235 | 85.56578 | 16062 ft | 371 kts | 106° |
| 2026-05-08 08:38 | 27.61548 | 85.59408 | 16698 ft | 376 kts | 105° |
| 2026-05-08 08:38 | 27.60951 | 85.62299 | 17334 ft | 381 kts | 99° |
| 2026-05-08 08:39 | 27.60690 | 85.65300 | 17953 ft | 387 kts | 94° |
| 2026-05-08 08:39 | 27.60531 | 85.68349 | 18550 ft | 392 kts | 94° |
| 2026-05-08 08:39 | 27.60316 | 85.71435 | 19123 ft | 396 kts | 98° |
| 2026-05-08 08:39 | 27.59795 | 85.74507 | 19700 ft | 401 kts | 103° |
| 2026-05-08 08:40 | 27.59201 | 85.77545 | 20278 ft | 405 kts | 102° |
| 2026-05-08 08:40 | 27.58597 | 85.80669 | 20879 ft | 409 kts | 102° |
| 2026-05-08 08:40 | 27.57992 | 85.83818 | 21489 ft | 413 kts | 102° |
| 2026-05-08 08:40 | 27.57381 | 85.86998 | 22067 ft | 417 kts | 102° |
| 2026-05-08 08:41 | 27.56764 | 85.90207 | 22649 ft | 422 kts | 102° |
| 2026-05-08 08:41 | 27.56135 | 85.93469 | 23206 ft | 427 kts | 102° |
| 2026-05-08 08:41 | 27.55502 | 85.96749 | 23761 ft | 432 kts | 102° |
| 2026-05-08 08:41 | 27.54859 | 86.00079 | 24227 ft | 435 kts | 102° |
| 2026-05-08 08:42 | 27.54211 | 86.03428 | 24693 ft | 439 kts | 103° |
| 2026-05-08 08:42 | 27.53555 | 86.06810 | 25114 ft | 443 kts | 103° |
| 2026-05-08 08:42 | 27.52895 | 86.10209 | 25596 ft | 446 kts | 103° |
| 2026-05-08 08:42 | 27.52228 | 86.13641 | 26047 ft | 450 kts | 103° |
| 2026-05-08 08:43 | 27.51555 | 86.17096 | 26481 ft | 453 kts | 103° |
| 2026-05-08 08:43 | 27.50875 | 86.20587 | 26919 ft | 457 kts | 104° |
| 2026-05-08 08:43 | 27.50198 | 86.24056 | 27352 ft | 461 kts | 104° |
| 2026-05-08 08:43 | 27.49507 | 86.27598 | 27758 ft | 464 kts | 104° |
| 2026-05-08 08:44 | 27.48834 | 86.31086 | 28151 ft | 468 kts | 104° |
| 2026-05-08 08:44 | 27.48149 | 86.34686 | 28559 ft | 471 kts | 104° |
| 2026-05-08 08:44 | 27.47461 | 86.38300 | 28947 ft | 475 kts | 104° |
| 2026-05-08 08:44 | 27.46763 | 86.41954 | 29303 ft | 478 kts | 104° |
| 2026-05-08 08:45 | 27.46061 | 86.45620 | 29676 ft | 481 kts | 104° |
| 2026-05-08 08:45 | 27.45349 | 86.49323 | 30005 ft | 485 kts | 104° |
| 2026-05-08 08:45 | 27.44635 | 86.53036 | 30352 ft | 488 kts | 104° |
| 2026-05-08 08:45 | 27.43911 | 86.56788 | 30596 ft | 492 kts | 105° |
| 2026-05-08 08:46 | 27.43181 | 86.60570 | 30866 ft | 496 kts | 104° |
| 2026-05-08 08:46 | 27.42444 | 86.64379 | 31145 ft | 500 kts | 105° |
| 2026-05-08 08:46 | 27.41710 | 86.68165 | 31428 ft | 502 kts | 105° |
| 2026-05-08 08:46 | 27.40963 | 86.72017 | 31751 ft | 504 kts | 105° |
| 2026-05-08 08:47 | 27.40457 | 86.74624 | 31991 ft | 505 kts | 105° |
| 2026-05-08 08:47 | 27.39706 | 86.78487 | 32315 ft | 507 kts | 105° |
| 2026-05-08 08:47 | 27.38950 | 86.82370 | 32647 ft | 508 kts | 106° |
| 2026-05-08 08:47 | 27.37944 | 86.87522 | 33038 ft | 511 kts | 106° |
| 2026-05-08 08:48 | 27.37428 | 86.90158 | 33290 ft | 511 kts | 106° |
| 2026-05-08 08:48 | 27.36662 | 86.94076 | 33614 ft | 512 kts | 106° |
| 2026-05-08 08:48 | 27.35895 | 86.97999 | 33773 ft | 514 kts | 107° |
| 2026-05-08 08:48 | 27.34874 | 87.03198 | 34158 ft | 515 kts | 107° |
| 2026-05-08 08:49 | 27.34350 | 87.05858 | 34292 ft | 517 kts | 107° |
| 2026-05-08 08:49 | 27.33568 | 87.09825 | 34606 ft | 516 kts | 107° |